createdAt,value
2023-03-31T00:06:49.569Z,3.18
2023-03-31T00:17:28.296Z,2.09
2023-03-31T00:22:47.030Z,2.2
2023-03-31T00:33:25.234Z,1.26
2023-03-31T00:49:22.237Z,1.64
2023-03-31T01:05:19.971Z,1.54
2023-03-31T01:15:58.714Z,1.74
2023-03-31T01:31:55.599Z,0.7
2023-03-31T01:47:52.975Z,0.2
2023-03-31T02:04:14.533Z,0.96
2023-03-31T02:14:52.705Z,1.34
2023-03-31T02:20:11.637Z,0.88
2023-03-31T02:30:49.277Z,2.46
2023-03-31T02:36:08.774Z,1.04
2023-03-31T02:46:46.953Z,1.88
2023-03-31T03:02:44.417Z,1.74
2023-03-31T03:13:22.414Z,3.68
2023-03-31T03:24:00.273Z,7.86
2023-03-31T03:39:58.107Z,2.64
2023-03-31T03:50:37.057Z,1.7
2023-03-31T03:55:56.540Z,2.16
2023-03-31T04:06:34.780Z,0.78
2023-03-31T04:22:32.298Z,1.08
2023-03-31T04:33:09.851Z,1.66
2023-03-31T04:38:28.351Z,1.68
2023-03-31T04:49:06.449Z,1.88
2023-03-31T05:05:03.026Z,1.34
2023-03-31T05:21:00.702Z,1.4
2023-03-31T05:31:39.614Z,0
2023-03-31T05:47:38.131Z,1.96
2023-03-31T06:03:35.789Z,1.36
2023-03-31T06:14:14.325Z,0.5
2023-03-31T06:19:33.410Z,1.62
2023-03-31T06:30:13.134Z,1.42
2023-03-31T06:46:10.094Z,1.82
2023-03-31T06:56:48.481Z,1.4
2023-03-31T07:12:45.939Z,0.64
2023-03-31T07:28:43.329Z,1.3
2023-03-31T07:39:21.943Z,4.62
2023-03-31T07:44:40.846Z,3.02
2023-03-31T07:55:19.041Z,1.86
2023-03-31T08:00:38.004Z,2.72
2023-03-31T08:11:17.190Z,3.76
2023-03-31T08:27:15.347Z,5.72
2023-03-31T08:37:53.100Z,7.46
2023-03-31T08:53:50.869Z,5.18
2023-03-31T09:09:47.722Z,16.87
2023-03-31T09:20:26.673Z,8.93
2023-03-31T09:36:25.063Z,8.54
2023-03-31T09:52:22.854Z,12.62
2023-03-31T10:03:01.538Z,5.38
2023-03-31T10:13:39.457Z,6.82
2023-03-31T10:29:36.666Z,5.52
2023-03-31T10:45:38.193Z,6.6
2023-03-31T10:56:12.886Z,10.66
2023-03-31T11:12:10.091Z,6.48
2023-03-31T11:28:07.401Z,5.74
2023-03-31T11:38:45.992Z,3.04
2023-03-31T11:54:43.000Z,5.22
2023-03-31T12:10:41.299Z,10.12
2023-03-31T12:21:19.196Z,7.86
2023-03-31T12:37:17.004Z,2.52
2023-03-31T12:53:15.153Z,7.8
2023-03-31T13:03:53.082Z,4
2023-03-31T13:09:12.360Z,9.72
2023-03-31T13:19:51.069Z,13.82
2023-03-31T13:35:49.235Z,8.06
2023-03-31T13:46:26.574Z,8.89
2023-03-31T13:51:46.215Z,9.47
2023-03-31T14:02:24.225Z,10.8
2023-03-31T14:18:21.645Z,7.36
2023-03-31T14:34:19.452Z,2.4
2023-03-31T14:44:57.886Z,11.54
2023-03-31T14:50:17.014Z,23.8
2023-03-31T15:00:55.483Z,8.3
2023-03-31T15:16:53.261Z,4.8
2023-03-31T15:27:36.837Z,8.52
2023-03-31T15:32:50.672Z,7.28
2023-03-31T15:43:28.468Z,8.38
2023-03-31T16:10:04.931Z,9.12
2023-03-31T16:15:24.070Z,10.8
2023-03-31T16:26:01.973Z,5.92
2023-03-31T16:41:58.852Z,6.72
2023-03-31T16:52:37.845Z,10.9
2023-03-31T17:03:16.884Z,14.54
2023-03-31T17:19:14.113Z,9.02
2023-03-31T17:29:52.919Z,5.08
2023-03-31T17:35:11.881Z,9.6
2023-03-31T17:45:50.105Z,4.73
2023-03-31T18:01:48.408Z,4.3
2023-03-31T18:12:26.819Z,9.89
2023-03-31T18:17:46.150Z,8.78
2023-03-31T18:28:23.941Z,8.1
2023-03-31T18:33:43.676Z,6.62
2023-03-31T18:44:22.322Z,5.98
2023-03-31T19:00:20.724Z,7.24
2023-03-31T19:10:59.509Z,8.42
2023-03-31T19:16:18.495Z,10.6
2023-03-31T19:26:57.138Z,6.52
2023-03-31T19:32:15.970Z,4.36
2023-03-31T19:43:19.078Z,4.48
2023-03-31T19:48:38.441Z,2.6
2023-03-31T19:59:16.408Z,1.1
2023-03-31T20:15:14.640Z,2.66
2023-03-31T20:25:53.003Z,5.18
2023-03-31T20:31:11.855Z,5.14
2023-03-31T20:41:50.364Z,3.4
2023-03-31T20:57:48.628Z,8.8
2023-03-31T21:13:46.612Z,10.56
2023-03-31T21:24:25.673Z,5.66
2023-03-31T21:40:24.009Z,6.7
2023-03-31T21:56:22.098Z,7
2023-03-31T22:07:00.543Z,3.12
2023-03-31T22:12:20.004Z,4.08
2023-03-31T22:22:59.047Z,5.58
2023-03-31T22:38:56.701Z,9.1
2023-03-31T22:49:35.179Z,8.32
2023-03-31T22:54:54.217Z,10.4
2023-03-31T23:05:31.914Z,8.28
2023-03-31T23:21:29.967Z,12.94
2023-03-31T23:42:48.294Z,8.1
2023-03-31T23:48:07.186Z,8.52
2023-03-31T23:58:45.744Z,7.38
